createdAt,value
2019-03-03T00:01:43.390Z,7.20
2019-03-03T00:04:14.734Z,7.20
2019-03-03T00:06:45.885Z,7.20
2019-03-03T00:09:17.374Z,7.20
2019-03-03T00:11:48.776Z,7.20
2019-03-03T00:14:20.518Z,7.20
2019-03-03T00:16:52.488Z,7.30
2019-03-03T00:19:24.129Z,7.30
2019-03-03T00:21:57.896Z,7.30
2019-03-03T00:24:30.684Z,7.30
2019-03-03T00:27:01.989Z,7.40
2019-03-03T00:29:33.459Z,7.40
2019-03-03T00:32:04.835Z,7.40
2019-03-03T00:34:36.172Z,7.40
2019-03-03T00:37:32.686Z,7.40
2019-03-03T00:40:15.201Z,7.40
2019-03-03T00:42:54.604Z,7.50
2019-03-03T00:45:49.339Z,7.40
2019-03-03T00:48:30.014Z,7.40
2019-03-03T00:51:27.061Z,7.40
2019-03-03T00:54:08.696Z,7.40
2019-03-03T00:57:14.508Z,7.40
2019-03-03T01:00:04.830Z,7.50
2019-03-03T01:02:44.611Z,7.40
2019-03-03T01:05:28.456Z,7.40
2019-03-03T01:08:17.315Z,7.40
2019-03-03T01:10:58.530Z,7.40
2019-03-03T01:13:37.915Z,7.40
2019-03-03T01:16:31.260Z,7.40
2019-03-03T01:19:11.033Z,7.40
2019-03-03T01:21:56.414Z,7.40
2019-03-03T01:24:53.000Z,7.40
2019-03-03T01:27:25.168Z,7.40
2019-03-03T01:29:56.816Z,7.40
2019-03-03T01:32:28.613Z,7.40
2019-03-03T01:35:00.004Z,7.40
2019-03-03T01:37:31.631Z,7.40
2019-03-03T01:40:02.976Z,7.40
2019-03-03T01:42:35.436Z,7.40
2019-03-03T01:45:09.040Z,7.40
2019-03-03T01:47:40.391Z,7.30
2019-03-03T01:50:11.849Z,7.30
2019-03-03T01:52:43.459Z,7.30
2019-03-03T01:55:14.946Z,7.30
2019-03-03T01:57:46.169Z,7.30
2019-03-03T02:00:26.504Z,7.30
2019-03-03T02:02:58.589Z,7.40
2019-03-03T02:05:29.917Z,7.30
2019-03-03T02:08:01.204Z,7.40
2019-03-03T02:10:32.444Z,7.30
2019-03-03T02:13:03.712Z,7.40
2019-03-03T02:15:35.311Z,7.40
2019-03-03T02:18:06.742Z,7.30
2019-03-03T02:20:38.128Z,7.40
2019-03-03T02:23:10.786Z,7.40
2019-03-03T02:25:42.109Z,7.30
2019-03-03T02:28:13.527Z,7.30
2019-03-03T02:30:45.001Z,7.30
2019-03-03T02:33:16.302Z,7.30
2019-03-03T02:35:48.421Z,7.40
2019-03-03T02:38:20.012Z,7.40
2019-03-03T02:40:51.349Z,7.40
2019-03-03T02:43:23.025Z,7.40
2019-03-03T02:45:54.598Z,7.40
2019-03-03T02:48:25.824Z,6.40
2019-03-03T02:50:57.185Z,7.40
2019-03-03T02:53:28.705Z,7.40
2019-03-03T02:55:59.951Z,7.40
2019-03-03T02:58:31.936Z,7.50
2019-03-03T03:01:10.021Z,7.50
2019-03-03T03:03:41.339Z,7.50
2019-03-03T03:06:37.749Z,7.40
2019-03-03T03:09:22.207Z,7.40
2019-03-03T03:12:31.135Z,7.50
2019-03-03T03:15:13.680Z,7.50
2019-03-03T03:18:06.683Z,7.50
2019-03-03T03:21:00.019Z,7.40
2019-03-03T03:23:40.237Z,7.40
2019-03-03T03:26:38.058Z,7.40
2019-03-03T03:29:27.557Z,7.40
2019-03-03T03:32:18.110Z,7.50
2019-03-03T03:35:03.764Z,7.50
2019-03-03T03:37:47.376Z,7.40
2019-03-03T03:40:39.324Z,7.40
2019-03-03T03:43:33.378Z,7.50
2019-03-03T03:46:19.005Z,7.40
2019-03-03T03:48:56.618Z,7.40
2019-03-03T03:51:47.988Z,7.40
2019-03-03T03:54:34.485Z,7.40
2019-03-03T03:57:23.795Z,7.40
2019-03-03T04:00:12.542Z,7.50
2019-03-03T04:03:03.523Z,7.40
2019-03-03T04:05:51.453Z,7.50
2019-03-03T04:08:48.173Z,7.40
2019-03-03T04:11:41.567Z,7.40
2019-03-03T04:14:18.897Z,7.50
2019-03-03T04:16:56.845Z,7.50
2019-03-03T04:19:52.753Z,7.50
2019-03-03T04:22:37.634Z,7.50
2019-03-03T04:25:22.813Z,7.50
2019-03-03T04:28:11.676Z,7.50
2019-03-03T04:30:55.910Z,7.50
2019-03-03T04:33:44.875Z,7.50
2019-03-03T04:36:37.758Z,7.60
2019-03-03T04:39:34.583Z,7.50
2019-03-03T04:42:13.923Z,7.50
2019-03-03T04:45:04.097Z,7.60
2019-03-03T04:47:52.844Z,7.50
2019-03-03T04:50:42.999Z,7.50
2019-03-03T04:53:45.539Z,7.40
2019-03-03T04:56:24.531Z,7.40
2019-03-03T04:59:13.521Z,7.30
2019-03-03T05:02:04.102Z,7.30
2019-03-03T05:05:00.399Z,7.30
2019-03-03T05:07:39.041Z,7.30
2019-03-03T05:10:20.690Z,7.30
2019-03-03T05:13:09.506Z,7.30
2019-03-03T05:15:58.331Z,7.30
2019-03-03T05:18:57.724Z,7.40
2019-03-03T05:21:28.931Z,7.30
2019-03-03T05:24:00.172Z,7.30
2019-03-03T05:26:31.330Z,7.30
2019-03-03T05:29:02.560Z,7.30
2019-03-03T05:31:34.063Z,7.40
2019-03-03T05:34:05.725Z,7.40
2019-03-03T05:36:37.003Z,7.40
2019-03-03T05:39:08.754Z,7.50
2019-03-03T05:41:40.358Z,7.50
2019-03-03T05:44:11.988Z,7.50
2019-03-03T05:46:43.535Z,7.50
2019-03-03T05:49:15.498Z,7.50
2019-03-03T05:51:46.882Z,7.50
2019-03-03T05:54:18.482Z,7.50
2019-03-03T05:56:50.198Z,7.40
2019-03-03T05:59:22.040Z,7.40
2019-03-03T06:01:53.296Z,7.40
2019-03-03T06:04:24.541Z,7.40
2019-03-03T06:06:55.833Z,7.30
2019-03-03T06:09:27.184Z,7.30
2019-03-03T06:12:03.130Z,7.30
2019-03-03T06:14:34.376Z,7.30
2019-03-03T06:17:06.037Z,7.40
2019-03-03T06:19:37.677Z,7.30
2019-03-03T06:22:08.955Z,7.30
2019-03-03T06:24:40.112Z,7.20
2019-03-03T06:27:11.438Z,7.10
2019-03-03T06:29:42.837Z,7.10
2019-03-03T06:32:14.111Z,7.10
2019-03-03T06:34:45.705Z,7.10
2019-03-03T06:37:17.174Z,7.10
2019-03-03T06:39:48.401Z,7.10
2019-03-03T06:42:19.560Z,7.20
2019-03-03T06:44:51.304Z,7.30
2019-03-03T06:47:22.680Z,7.40
2019-03-03T06:49:53.894Z,7.50
2019-03-03T06:52:25.060Z,7.70
2019-03-03T06:54:56.299Z,7.90
2019-03-03T06:57:27.487Z,7.90
2019-03-03T06:59:58.748Z,7.90
2019-03-03T07:02:30.282Z,8.00
2019-03-03T07:05:01.469Z,8.00
2019-03-03T07:07:33.102Z,8.00
2019-03-03T07:10:04.818Z,8.00
2019-03-03T07:12:36.279Z,8.00
2019-03-03T07:15:09.859Z,8.10
2019-03-03T07:17:41.100Z,8.10
2019-03-03T07:20:13.003Z,8.00
2019-03-03T07:22:44.320Z,8.00
2019-03-03T07:25:15.701Z,8.10
2019-03-03T07:27:47.038Z,8.00
2019-03-03T07:30:18.425Z,8.10
2019-03-03T07:33:11.570Z,8.10
2019-03-03T07:35:43.285Z,8.10
2019-03-03T07:38:14.814Z,8.20
2019-03-03T07:40:46.115Z,8.20
2019-03-03T07:43:17.610Z,8.30
2019-03-03T07:45:49.001Z,8.40
2019-03-03T07:48:20.309Z,8.40
2019-03-03T07:50:51.619Z,8.30
2019-03-03T07:53:22.923Z,8.30
2019-03-03T07:55:54.979Z,8.30
2019-03-03T07:58:26.475Z,8.30
2019-03-03T08:00:57.792Z,8.30
2019-03-03T08:03:31.505Z,8.30
2019-03-03T08:06:03.524Z,8.50
2019-03-03T08:08:34.980Z,8.80
2019-03-03T08:11:06.889Z,9.10
2019-03-03T08:13:38.090Z,9.30
2019-03-03T08:16:10.895Z,9.50
2019-03-03T08:18:42.460Z,9.80
2019-03-03T08:21:13.838Z,10.10
2019-03-03T08:23:45.110Z,10.10
2019-03-03T08:26:16.454Z,10.20
2019-03-03T08:28:47.919Z,10.30
2019-03-03T08:31:19.233Z,10.40
2019-03-03T08:33:50.660Z,10.50
2019-03-03T08:36:22.488Z,10.70
2019-03-03T08:38:53.947Z,10.90
2019-03-03T08:41:25.270Z,11.10
2019-03-03T08:44:09.311Z,11.20
2019-03-03T08:46:58.258Z,11.60
2019-03-03T08:49:41.211Z,11.80
2019-03-03T08:52:21.173Z,11.90
2019-03-03T08:55:15.162Z,12.10
2019-03-03T08:58:11.276Z,12.30
2019-03-03T09:00:56.959Z,12.10
2019-03-03T09:03:43.601Z,12.30
2019-03-03T09:06:33.775Z,12.40
2019-03-03T09:09:25.159Z,12.20
2019-03-03T09:12:23.567Z,12.20
2019-03-03T09:15:16.990Z,12.20
2019-03-03T09:18:07.335Z,11.90
2019-03-03T09:21:00.864Z,11.90
2019-03-03T09:23:41.668Z,12.20
2019-03-03T09:26:34.893Z,12.30
2019-03-03T09:29:37.256Z,12.50
2019-03-03T09:32:26.318Z,12.00
2019-03-03T09:35:15.825Z,11.50
2019-03-03T09:38:05.080Z,11.70
2019-03-03T09:41:04.705Z,12.00
2019-03-03T09:44:04.614Z,12.30
2019-03-03T09:47:03.692Z,12.70
2019-03-03T09:50:11.925Z,13.10
2019-03-03T09:53:08.815Z,12.70
2019-03-03T09:55:57.817Z,11.90
2019-03-03T09:58:48.769Z,11.70
2019-03-03T10:01:28.185Z,11.70
2019-03-03T10:04:17.127Z,11.60
2019-03-03T10:07:01.390Z,11.60
2019-03-03T10:09:50.656Z,11.70
2019-03-03T10:12:46.962Z,11.60
2019-03-03T10:15:32.603Z,11.40
2019-03-03T10:18:25.884Z,11.40
2019-03-03T10:21:22.366Z,11.40
2019-03-03T10:24:01.710Z,11.50
2019-03-03T10:26:43.811Z,11.60
2019-03-03T10:29:40.571Z,11.70
2019-03-03T10:32:21.215Z,11.70
2019-03-03T10:35:02.096Z,11.70
2019-03-03T10:37:42.233Z,11.70
2019-03-03T10:40:44.604Z,11.60
2019-03-03T10:43:32.215Z,11.60
2019-03-03T10:46:21.499Z,11.70
2019-03-03T10:49:10.675Z,11.70
2019-03-03T10:51:50.628Z,11.60
2019-03-03T10:54:40.780Z,11.50
2019-03-03T10:57:24.251Z,11.50
2019-03-03T11:00:17.784Z,11.40
2019-03-03T11:03:14.217Z,11.40
2019-03-03T11:06:10.922Z,11.40
2019-03-03T11:09:08.546Z,11.40
2019-03-03T11:11:50.048Z,11.50
2019-03-03T11:14:52.701Z,11.40
2019-03-03T11:17:41.719Z,11.40
2019-03-03T11:20:31.019Z,11.50
2019-03-03T11:23:13.802Z,11.70
2019-03-03T11:26:07.096Z,11.90
2019-03-03T11:28:59.673Z,12.10
2019-03-03T11:31:52.779Z,12.30
2019-03-03T11:34:33.338Z,12.30
2019-03-03T11:37:23.762Z,12.10
2019-03-03T11:40:13.239Z,12.10
2019-03-03T11:42:59.729Z,12.00
2019-03-03T11:45:54.464Z,12.20
2019-03-03T11:48:33.751Z,12.60
2019-03-03T11:51:24.093Z,13.10
2019-03-03T11:54:01.889Z,13.50
2019-03-03T11:56:52.297Z,14.20
2019-03-03T11:59:41.166Z,14.60
2019-03-03T12:02:32.755Z,14.70
2019-03-03T12:05:23.139Z,14.30
2019-03-03T12:08:12.847Z,13.70
2019-03-03T12:11:15.229Z,13.40
2019-03-03T12:14:17.901Z,13.00
2019-03-03T12:17:06.351Z,12.80
2019-03-03T12:19:56.007Z,12.70
2019-03-03T12:22:49.512Z,12.70
2019-03-03T12:25:55.011Z,12.80
2019-03-03T12:28:47.764Z,12.80
2019-03-03T12:31:26.296Z,12.70
2019-03-03T12:34:07.273Z,12.60
2019-03-03T12:36:56.418Z,12.50
2019-03-03T12:39:51.148Z,12.30
2019-03-03T12:42:34.776Z,12.40
2019-03-03T12:45:40.516Z,12.50
2019-03-03T12:48:39.982Z,13.00
2019-03-03T12:51:30.166Z,13.60
2019-03-03T12:54:23.116Z,13.90
2019-03-03T12:57:02.484Z,13.70
2019-03-03T12:59:52.749Z,13.90
2019-03-03T13:02:52.076Z,14.20
2019-03-03T13:05:41.036Z,14.40
2019-03-03T13:08:21.226Z,14.80
2019-03-03T13:11:00.136Z,15.10
2019-03-03T13:13:45.923Z,15.30
2019-03-03T13:16:29.343Z,15.00
2019-03-03T13:19:28.772Z,14.80
2019-03-03T13:22:25.758Z,14.90
2019-03-03T13:25:21.883Z,15.20
2019-03-03T13:28:21.219Z,15.10
2019-03-03T13:31:21.052Z,15.00
2019-03-03T13:34:09.206Z,14.90
2019-03-03T13:36:47.302Z,15.00
2019-03-03T13:39:28.075Z,14.80
2019-03-03T13:42:42.215Z,14.80
2019-03-03T13:45:14.797Z,15.20
2019-03-03T13:47:46.225Z,15.40
2019-03-03T13:50:18.099Z,15.40
2019-03-03T13:52:49.777Z,15.00
2019-03-03T13:55:21.831Z,14.50
2019-03-03T13:57:53.299Z,14.10
2019-03-03T14:00:25.497Z,13.60
2019-03-03T14:02:56.936Z,13.20
2019-03-03T14:05:28.455Z,13.10
2019-03-03T14:08:00.250Z,13.00
2019-03-03T14:10:32.128Z,13.00
2019-03-03T14:13:03.745Z,12.30
2019-03-03T14:15:35.721Z,13.00
2019-03-03T14:18:07.212Z,13.00
2019-03-03T14:20:39.983Z,12.90
2019-03-03T14:23:11.394Z,12.90
2019-03-03T14:25:42.809Z,12.90
2019-03-03T14:28:14.331Z,12.90
2019-03-03T14:30:45.711Z,12.90
2019-03-03T14:33:17.355Z,12.90
2019-03-03T14:35:48.930Z,12.90
2019-03-03T14:38:20.838Z,12.90
2019-03-03T14:40:52.659Z,13.00
2019-03-03T14:43:24.588Z,13.00
2019-03-03T14:45:57.971Z,13.00
2019-03-03T14:48:29.702Z,13.00
2019-03-03T14:51:01.681Z,13.00
2019-03-03T14:53:33.443Z,12.90
2019-03-03T14:56:04.875Z,12.90
2019-03-03T14:58:36.342Z,12.80
2019-03-03T15:01:08.698Z,12.90
2019-03-03T15:03:40.414Z,12.90
2019-03-03T15:06:12.502Z,12.90
2019-03-03T15:08:44.124Z,13.00
2019-03-03T15:11:15.584Z,13.00
2019-03-03T15:13:47.288Z,13.00
2019-03-03T15:16:18.842Z,13.00
2019-03-03T15:18:50.467Z,13.10
2019-03-03T15:21:27.942Z,13.10
2019-03-03T15:24:00.688Z,13.20
2019-03-03T15:26:32.203Z,13.30
2019-03-03T15:29:04.011Z,13.70
2019-03-03T15:31:37.912Z,14.10
2019-03-03T15:34:09.905Z,14.50
2019-03-03T15:36:41.749Z,14.60
2019-03-03T15:39:13.627Z,14.70
2019-03-03T15:41:45.316Z,14.50
2019-03-03T15:44:16.662Z,14.10
2019-03-03T15:46:48.094Z,13.80
2019-03-03T15:49:19.525Z,13.60
2019-03-03T15:51:51.386Z,13.50
2019-03-03T15:54:22.764Z,13.50
2019-03-03T15:56:54.573Z,13.40
2019-03-03T15:59:26.049Z,13.40
2019-03-03T16:01:57.544Z,13.50
2019-03-03T16:04:28.971Z,13.50
2019-03-03T16:07:00.774Z,13.60
2019-03-03T16:09:32.008Z,13.50
2019-03-03T16:12:03.550Z,13.40
2019-03-03T16:14:35.349Z,13.20
2019-03-03T16:17:07.214Z,13.10
2019-03-03T16:19:38.658Z,13.00
2019-03-03T16:22:10.359Z,13.00
2019-03-03T16:24:41.875Z,13.00
2019-03-03T16:27:13.541Z,12.90
2019-03-03T16:29:44.876Z,12.90
2019-03-03T16:32:16.476Z,12.80
2019-03-03T16:34:48.079Z,12.70
2019-03-03T16:37:19.615Z,12.70
2019-03-03T16:39:50.949Z,12.60
2019-03-03T16:42:22.500Z,12.60
2019-03-03T16:44:54.142Z,12.50
2019-03-03T16:47:25.521Z,12.30
2019-03-03T16:49:57.187Z,12.20
2019-03-03T16:52:29.091Z,12.00
2019-03-03T16:55:00.648Z,11.90
2019-03-03T16:57:32.380Z,11.70
2019-03-03T17:00:04.600Z,11.50
2019-03-03T17:02:37.357Z,11.30
2019-03-03T17:05:09.832Z,11.10
2019-03-03T17:07:41.617Z,10.80
2019-03-03T17:10:13.965Z,10.60
2019-03-03T17:12:45.708Z,10.50
2019-03-03T17:15:19.792Z,10.40
2019-03-03T17:17:51.664Z,8.90
2019-03-03T17:20:23.131Z,10.20
2019-03-03T17:22:54.706Z,10.10
2019-03-03T17:25:26.220Z,9.90
2019-03-03T17:27:57.609Z,9.90
2019-03-03T17:30:29.175Z,9.80
2019-03-03T17:33:00.567Z,9.70
2019-03-03T17:35:32.051Z,9.60
2019-03-03T17:38:03.611Z,9.70
2019-03-03T17:40:35.705Z,9.60
2019-03-03T17:43:08.294Z,9.70
2019-03-03T17:45:40.324Z,9.70
2019-03-03T17:48:11.675Z,9.60
2019-03-03T17:50:43.077Z,9.50
2019-03-03T17:53:14.555Z,9.40
2019-03-03T17:55:46.297Z,9.30
2019-03-03T17:58:17.867Z,9.30
2019-03-03T18:00:49.649Z,9.20
2019-03-03T18:03:21.163Z,9.10
2019-03-03T18:05:52.659Z,9.00
2019-03-03T18:08:24.163Z,9.00
2019-03-03T18:10:56.102Z,9.00
2019-03-03T18:13:27.472Z,9.10
2019-03-03T18:15:58.862Z,9.00
2019-03-03T18:18:30.191Z,8.90
2019-03-03T18:21:01.864Z,8.90
2019-03-03T18:23:33.748Z,8.90
2019-03-03T18:26:05.518Z,8.80
2019-03-03T18:28:36.976Z,8.80
2019-03-03T18:31:08.427Z,8.80
2019-03-03T18:33:39.886Z,8.90
2019-03-03T18:36:11.722Z,8.90
2019-03-03T18:38:43.371Z,9.00
2019-03-03T18:41:15.321Z,8.90
2019-03-03T18:43:46.715Z,9.00
2019-03-03T18:46:18.184Z,9.00
2019-03-03T18:48:49.709Z,9.10
2019-03-03T18:51:21.211Z,9.00
2019-03-03T18:53:52.739Z,9.00
2019-03-03T18:56:24.291Z,9.00
2019-03-03T18:58:55.838Z,9.00
2019-03-03T19:01:27.378Z,9.10
2019-03-03T19:03:58.748Z,9.10
2019-03-03T19:06:30.163Z,9.10
2019-03-03T19:09:02.184Z,9.10
2019-03-03T19:11:35.236Z,9.10
2019-03-03T19:14:07.091Z,9.10
2019-03-03T19:16:38.616Z,9.00
2019-03-03T19:19:10.135Z,9.00
2019-03-03T19:21:41.819Z,9.00
2019-03-03T19:24:13.268Z,9.10
2019-03-03T19:26:44.746Z,9.30
2019-03-03T19:29:15.991Z,9.40
2019-03-03T19:31:47.894Z,9.50
2019-03-03T19:34:19.221Z,9.50
2019-03-03T19:36:50.956Z,9.40
2019-03-03T19:39:22.492Z,9.40
2019-03-03T19:41:54.167Z,9.30
2019-03-03T19:44:25.890Z,9.10
2019-03-03T19:46:57.440Z,9.00
2019-03-03T19:49:28.916Z,8.80
2019-03-03T19:52:00.519Z,8.60
2019-03-03T19:54:31.946Z,8.40
2019-03-03T19:57:03.780Z,8.20
2019-03-03T19:59:35.611Z,8.10
2019-03-03T20:02:07.544Z,7.90
2019-03-03T20:04:39.151Z,7.70
2019-03-03T20:07:10.699Z,7.50
2019-03-03T20:09:42.197Z,7.40
2019-03-03T20:12:13.865Z,7.30
2019-03-03T20:14:45.170Z,7.10
2019-03-03T20:17:16.977Z,6.80
2019-03-03T20:19:48.885Z,6.70
2019-03-03T20:22:20.286Z,6.60
2019-03-03T20:24:53.094Z,6.40
2019-03-03T20:27:25.900Z,6.40
2019-03-03T20:29:58.267Z,6.30
2019-03-03T20:32:30.185Z,6.30
2019-03-03T20:35:01.865Z,6.30
2019-03-03T20:37:34.244Z,6.30
2019-03-03T20:40:07.552Z,6.30
2019-03-03T20:42:39.101Z,6.20
2019-03-03T20:45:14.288Z,6.20
2019-03-03T20:47:45.765Z,6.20
2019-03-03T20:50:21.443Z,6.10
2019-03-03T20:52:53.722Z,6.10
2019-03-03T20:55:25.683Z,6.00
2019-03-03T20:57:57.695Z,6.00
2019-03-03T21:00:29.328Z,6.10
2019-03-03T21:03:01.035Z,6.20
2019-03-03T21:05:33.395Z,6.20
2019-03-03T21:08:04.878Z,6.30
2019-03-03T21:10:36.583Z,6.40
2019-03-03T21:13:08.102Z,6.40
2019-03-03T21:15:39.974Z,6.50
2019-03-03T21:18:11.329Z,6.50
2019-03-03T21:20:43.321Z,6.50
2019-03-03T21:23:15.295Z,6.50
2019-03-03T21:25:47.382Z,6.60
2019-03-03T21:28:18.907Z,6.60
2019-03-03T21:30:50.336Z,6.60
2019-03-03T21:33:21.736Z,6.60
2019-03-03T21:35:53.480Z,6.70
2019-03-03T21:38:25.859Z,6.80
2019-03-03T21:40:57.564Z,6.80
2019-03-03T21:43:28.931Z,6.80
2019-03-03T21:46:01.213Z,6.70
2019-03-03T21:48:33.273Z,6.70
2019-03-03T21:51:07.773Z,6.70
2019-03-03T21:53:39.600Z,6.60
2019-03-03T21:56:11.374Z,6.60
2019-03-03T21:58:42.942Z,6.60
2019-03-03T22:01:15.122Z,6.70
2019-03-03T22:03:47.054Z,6.80
2019-03-03T22:06:18.748Z,6.90
2019-03-03T22:08:50.338Z,7.00
2019-03-03T22:11:22.079Z,7.00
2019-03-03T22:13:53.778Z,7.00
2019-03-03T22:16:25.517Z,6.90
2019-03-03T22:18:56.969Z,6.90
2019-03-03T22:21:28.452Z,6.90
2019-03-03T22:23:59.863Z,6.90
2019-03-03T22:26:31.524Z,6.90
2019-03-03T22:29:03.008Z,6.90
2019-03-03T22:31:34.653Z,6.90
2019-03-03T22:34:06.180Z,7.00
2019-03-03T22:36:37.469Z,7.00
2019-03-03T22:39:09.512Z,7.00
2019-03-03T22:41:41.223Z,7.00
2019-03-03T22:44:13.118Z,6.90
2019-03-03T22:46:44.827Z,6.80
2019-03-03T22:49:16.237Z,6.90
2019-03-03T22:51:47.622Z,6.90
2019-03-03T22:54:20.000Z,6.90
2019-03-03T22:56:51.376Z,6.90
2019-03-03T22:59:22.986Z,6.90
2019-03-03T23:01:54.702Z,6.90
2019-03-03T23:04:56.628Z,6.80
2019-03-03T23:08:13.868Z,6.80
2019-03-03T23:11:31.811Z,6.80
2019-03-03T23:14:55.713Z,6.90
2019-03-03T23:18:42.291Z,7.00
2019-03-03T23:21:35.102Z,7.10
2019-03-03T23:25:37.410Z,7.20
2019-03-03T23:28:09.415Z,7.20
2019-03-03T23:30:41.085Z,7.20
2019-03-03T23:33:12.971Z,7.20
2019-03-03T23:35:44.665Z,7.20
2019-03-03T23:38:16.519Z,7.20
2019-03-03T23:40:48.561Z,7.20
2019-03-03T23:43:20.269Z,7.20
2019-03-03T23:45:52.192Z,7.10
2019-03-03T23:48:23.822Z,7.10
2019-03-03T23:50:55.021Z,7.10
2019-03-03T23:53:26.660Z,7.10
2019-03-03T23:55:59.098Z,7.20
2019-03-03T23:58:30.388Z,7.20
